< < Back
Terminal Aerodrome Forecast


Current Version              Previous Versions:   1  2  3  4  5  6  7  8  9  

Terminal Aerodrome Forecast

372
FTUS42 KCHS 031124
TAFCHS
TAF
KCHS 031124Z 0312/0412 VRB04KT P6SM SCT025 BKN250
     FM031900 14007KT P6SM BKN050 BKN250
     FM040000 20004KT P6SM FEW050 BKN250=

Latest METAR

207
SAUS80 KWBC 042100 CCA
MTRCHS
METAR KCHS 042056Z 21005KT 10SM TS FEW045CB SCT060 BKN100 26/21 A2995
RMK AO2 SLP141 OCNL LTGICCG SW-W TS SW-W MOV SW 60000
T02560206 55001


USA.gov is the U.S. government's official web portal to all federal, state and local government web resources and services.